createdAt,value
2022-12-24T00:04:09.208Z,3.50
2022-12-24T00:09:13.777Z,7.00
2022-12-24T00:14:18.407Z,4.50
2022-12-24T00:19:23.003Z,5.25
2022-12-24T00:24:27.530Z,6.75
2022-12-24T00:29:32.064Z,5.50
2022-12-24T00:34:36.725Z,6.00
2022-12-24T00:39:40.912Z,4.00
2022-12-24T00:44:45.213Z,6.25
2022-12-24T00:49:49.925Z,7.00
2022-12-24T00:54:55.465Z,10.75
2022-12-24T01:00:00.165Z,8.25
2022-12-24T01:05:13.861Z,7.00
2022-12-24T01:10:20.290Z,9.00
2022-12-24T01:15:25.036Z,7.50
2022-12-24T01:20:32.806Z,7.50
2022-12-24T01:25:40.232Z,4.25
2022-12-24T01:30:45.177Z,7.00
2022-12-24T01:35:49.752Z,5.25
2022-12-24T01:41:13.478Z,6.50
2022-12-24T01:46:28.326Z,6.50
2022-12-24T01:51:37.424Z,5.50
2022-12-24T01:56:47.275Z,5.75
2022-12-24T02:01:52.979Z,5.75
2022-12-24T02:06:57.638Z,7.00
2022-12-24T02:12:02.576Z,5.75
2022-12-24T02:17:24.881Z,6.00
2022-12-24T02:22:41.573Z,8.00
2022-12-24T02:27:52.202Z,5.25
2022-12-24T02:33:15.009Z,4.00
2022-12-24T02:38:28.687Z,7.00
2022-12-24T02:43:38.602Z,7.50
2022-12-24T02:48:45.375Z,4.00
2022-12-24T02:53:49.904Z,3.75
2022-12-24T02:58:54.491Z,6.00
2022-12-24T03:04:17.333Z,5.25
2022-12-24T03:09:34.233Z,5.00
2022-12-24T03:14:40.033Z,6.25
2022-12-24T03:19:44.171Z,5.00
2022-12-24T03:24:48.326Z,4.00
2022-12-24T03:29:52.557Z,3.00
2022-12-24T03:34:56.746Z,5.75
2022-12-24T03:40:00.899Z,6.75
2022-12-24T03:45:05.418Z,6.00
2022-12-24T03:50:09.860Z,7.00
2022-12-24T03:55:14.019Z,6.00
2022-12-24T04:00:18.308Z,5.00
2022-12-24T04:05:23.807Z,6.00
2022-12-24T04:10:28.065Z,6.25
2022-12-24T04:15:32.343Z,3.75
2022-12-24T04:20:36.880Z,5.00
2022-12-24T04:25:41.067Z,7.50
2022-12-24T04:30:45.956Z,6.25
2022-12-24T04:35:50.129Z,9.25
2022-12-24T04:41:04.684Z,3.75
2022-12-24T04:46:13.638Z,7.50
2022-12-24T04:51:18.456Z,10.25
2022-12-24T04:56:27.371Z,5.50
2022-12-24T05:01:33.133Z,6.75
2022-12-24T05:06:37.832Z,5.00
2022-12-24T05:11:42.029Z,7.75
2022-12-24T05:16:47.623Z,9.25
2022-12-24T05:22:11.518Z,6.50
2022-12-24T05:27:15.816Z,7.75
2022-12-24T05:32:20.047Z,5.50
2022-12-24T05:37:24.306Z,9.00
2022-12-24T05:42:28.559Z,9.25
2022-12-24T05:47:39.617Z,7.75
2022-12-24T05:52:47.674Z,7.00
2022-12-24T05:57:51.942Z,9.00
2022-12-24T06:02:56.299Z,7.25
2022-12-24T06:08:00.780Z,6.50
2022-12-24T06:13:05.725Z,7.25
2022-12-24T06:18:10.087Z,6.75
2022-12-24T06:23:14.441Z,7.00
2022-12-24T06:28:19.292Z,6.00
2022-12-24T06:33:23.642Z,4.25
2022-12-24T06:38:28.296Z,5.50
2022-12-24T06:43:32.621Z,7.75
2022-12-24T06:48:36.845Z,5.50
2022-12-24T06:53:41.284Z,6.00
2022-12-24T06:58:45.797Z,9.50
2022-12-24T07:03:51.460Z,8.50
2022-12-24T07:08:56.301Z,5.00
2022-12-24T07:14:00.718Z,9.25
2022-12-24T07:19:05.072Z,8.75
2022-12-24T07:24:10.658Z,9.25
2022-12-24T07:29:14.892Z,5.50
2022-12-24T07:34:19.164Z,8.25
2022-12-24T07:39:23.429Z,5.50
2022-12-24T07:44:27.758Z,9.25
2022-12-24T07:49:32.087Z,7.25
2022-12-24T07:54:36.285Z,5.00
2022-12-24T07:59:40.772Z,6.75
2022-12-24T08:04:45.172Z,7.50
2022-12-24T08:09:50.603Z,4.75
2022-12-24T08:14:54.956Z,5.50
2022-12-24T08:19:59.301Z,4.50
2022-12-24T08:25:03.631Z,4.25
2022-12-24T08:30:08.430Z,7.00
2022-12-24T08:35:12.777Z,5.00
2022-12-24T08:40:17.228Z,4.25
2022-12-24T08:45:21.687Z,5.25
2022-12-24T08:50:25.993Z,4.00
2022-12-24T08:55:30.313Z,6.00
2022-12-24T09:00:34.707Z,8.75
2022-12-24T09:05:41.936Z,8.25
2022-12-24T09:10:46.221Z,8.00
2022-12-24T09:15:57.121Z,8.00
2022-12-24T09:21:02.446Z,10.50
2022-12-24T09:26:08.726Z,12.25
2022-12-24T09:31:14.269Z,15.00
2022-12-24T09:36:18.756Z,20.25
2022-12-24T09:41:29.029Z,25.75
2022-12-24T09:46:37.895Z,28.75
2022-12-24T09:52:03.364Z,30.75
2022-12-24T09:57:10.442Z,33.50
2022-12-24T10:02:20.534Z,34.50
2022-12-24T10:07:37.866Z,31.25
2022-12-24T10:12:47.598Z,33.25
2022-12-24T10:18:12.202Z,31.25
2022-12-24T10:23:28.619Z,30.50
2022-12-24T10:28:55.514Z,30.00
2022-12-24T10:34:12.624Z,29.50
2022-12-24T10:39:21.424Z,34.75
2022-12-24T10:44:28.041Z,38.00
2022-12-24T10:49:38.009Z,35.50
2022-12-24T10:55:01.852Z,39.25
2022-12-24T11:00:07.615Z,34.25
2022-12-24T11:05:33.057Z,32.75
2022-12-24T11:10:38.516Z,34.50
2022-12-24T11:15:42.814Z,30.00
2022-12-24T11:20:51.411Z,32.00
2022-12-24T11:25:57.711Z,32.00
2022-12-24T11:31:04.764Z,29.50
2022-12-24T11:36:14.958Z,26.25
2022-12-24T11:41:19.577Z,24.75
2022-12-24T11:46:38.710Z,27.75
2022-12-24T11:52:00.279Z,26.50
2022-12-24T11:57:05.823Z,24.50
2022-12-24T12:02:20.463Z,23.25
2022-12-24T12:07:37.304Z,25.25
2022-12-24T12:12:47.574Z,15.25
2022-12-24T12:17:52.365Z,21.00
2022-12-24T12:23:16.593Z,22.25
2022-12-24T12:28:25.788Z,14.00
2022-12-24T12:33:40.476Z,16.75
2022-12-24T12:38:45.318Z,23.25
2022-12-24T12:44:25.326Z,19.50
2022-12-24T12:49:29.986Z,17.00
2022-12-24T12:54:47.646Z,21.25
2022-12-24T12:59:55.325Z,16.00
2022-12-24T13:05:16.794Z,18.50
2022-12-24T13:10:24.337Z,23.25
2022-12-24T13:15:38.664Z,35.00
2022-12-24T13:20:49.907Z,36.50
2022-12-24T13:25:56.306Z,43.00
2022-12-24T13:31:14.942Z,45.50
2022-12-24T13:36:20.254Z,42.75
2022-12-24T13:41:41.023Z,41.00
2022-12-24T13:47:06.300Z,44.00
2022-12-24T13:52:11.177Z,44.25
2022-12-24T13:57:34.547Z,46.00
2022-12-24T14:02:41.651Z,43.50
2022-12-24T14:07:48.984Z,48.00
2022-12-24T14:12:55.028Z,62.00
2022-12-24T14:18:00.767Z,61.00
2022-12-24T14:23:07.490Z,52.75
2022-12-24T14:28:18.723Z,56.25
2022-12-24T14:33:36.134Z,53.75
2022-12-24T14:38:42.283Z,51.25
2022-12-24T14:43:52.415Z,50.50
2022-12-24T14:48:59.516Z,47.50
2022-12-24T14:54:07.185Z,44.00
2022-12-24T14:59:21.140Z,43.75
2022-12-24T15:04:25.465Z,44.25
2022-12-24T15:09:35.731Z,46.75
2022-12-24T15:14:45.411Z,43.75
2022-12-24T15:19:52.181Z,42.50
2022-12-24T15:24:56.466Z,42.50
2022-12-24T15:30:01.520Z,43.00
2022-12-24T15:35:06.225Z,39.25
2022-12-24T15:40:12.059Z,38.75
2022-12-24T15:45:21.747Z,34.75
2022-12-24T15:50:46.402Z,34.75
2022-12-24T15:56:07.021Z,34.50
2022-12-24T16:01:11.434Z,31.50
2022-12-24T16:06:15.869Z,29.00
2022-12-24T16:11:25.300Z,30.00
2022-12-24T16:16:47.729Z,29.00
2022-12-24T16:21:59.641Z,25.75
2022-12-24T16:27:03.954Z,28.75
2022-12-24T16:32:08.281Z,26.00
2022-12-24T16:37:13.123Z,24.50
2022-12-24T16:42:35.385Z,19.25
2022-12-24T16:47:43.193Z,22.75
2022-12-24T16:52:47.791Z,22.50
2022-12-24T16:57:51.865Z,19.25
2022-12-24T17:02:56.470Z,22.50
2022-12-24T17:08:01.735Z,19.25
2022-12-24T17:13:06.342Z,22.25
2022-12-24T17:18:10.368Z,18.25
2022-12-24T17:23:14.498Z,19.50
2022-12-24T17:28:18.554Z,18.25
2022-12-24T17:33:22.625Z,16.00
2022-12-24T17:38:26.848Z,19.75
2022-12-24T17:43:30.947Z,18.75
2022-12-24T17:48:36.033Z,16.25
2022-12-24T17:53:42.208Z,16.25
2022-12-24T17:58:47.257Z,17.00
2022-12-24T18:03:52.108Z,19.00
2022-12-24T18:08:56.501Z,17.75
2022-12-24T18:14:02.275Z,17.00
2022-12-24T18:19:07.570Z,17.75
2022-12-24T18:24:12.939Z,12.00
2022-12-24T18:29:17.605Z,16.25
2022-12-24T18:34:21.748Z,15.75
2022-12-24T18:39:26.030Z,14.50
2022-12-24T18:44:30.365Z,12.00
2022-12-24T18:49:34.407Z,11.75
2022-12-24T18:54:39.118Z,9.50
2022-12-24T18:59:43.197Z,10.00
2022-12-24T19:04:47.257Z,10.75
2022-12-24T19:09:51.483Z,10.75
2022-12-24T19:14:55.644Z,8.50
2022-12-24T19:19:59.737Z,8.50
2022-12-24T19:25:03.818Z,10.50
2022-12-24T19:30:08.268Z,8.50
2022-12-24T19:35:12.286Z,8.50
2022-12-24T19:40:16.400Z,10.00
2022-12-24T19:45:21.283Z,7.75
2022-12-24T19:50:25.334Z,6.25
2022-12-24T19:55:30.287Z,9.00
2022-12-24T20:00:34.449Z,6.75
2022-12-24T20:05:42.292Z,6.00
2022-12-24T20:10:46.359Z,9.50
2022-12-24T20:15:50.433Z,7.50
2022-12-24T20:20:54.489Z,9.50
2022-12-24T20:26:00.114Z,6.50
2022-12-24T20:31:11.610Z,7.25
2022-12-24T20:36:19.538Z,8.50
2022-12-24T20:41:26.738Z,9.00
2022-12-24T20:46:32.355Z,13.50
2022-12-24T20:51:36.431Z,11.75
2022-12-24T20:56:40.448Z,11.25
2022-12-24T21:01:44.572Z,12.00
2022-12-24T21:06:48.693Z,11.50
2022-12-24T21:11:52.683Z,12.25
2022-12-24T21:16:56.935Z,10.50
2022-12-24T21:22:01.403Z,10.50
2022-12-24T21:27:06.229Z,9.75
2022-12-24T21:32:10.238Z,11.50
2022-12-24T21:37:14.497Z,11.00
2022-12-24T21:42:19.419Z,8.25
2022-12-24T21:47:23.414Z,10.25
2022-12-24T21:52:27.423Z,6.25
2022-12-24T21:57:49.355Z,8.75
2022-12-24T22:02:55.995Z,10.00
2022-12-24T22:08:18.931Z,9.75
2022-12-24T22:13:23.733Z,10.50
2022-12-24T22:18:28.489Z,9.75
2022-12-24T22:23:37.091Z,8.75
2022-12-24T22:28:45.191Z,8.25
2022-12-24T22:33:49.853Z,12.25
2022-12-24T22:38:54.539Z,12.00
2022-12-24T22:44:00.091Z,11.50
2022-12-24T22:49:04.616Z,12.25
2022-12-24T22:54:09.298Z,10.75
2022-12-24T22:59:17.157Z,13.75
2022-12-24T23:04:21.862Z,14.00
2022-12-24T23:09:26.468Z,14.25
2022-12-24T23:14:49.392Z,12.75
2022-12-24T23:19:54.151Z,16.50
2022-12-24T23:24:58.811Z,16.25
2022-12-24T23:30:03.383Z,19.25
2022-12-24T23:35:08.211Z,17.00
2022-12-24T23:40:12.549Z,19.50
2022-12-24T23:45:17.086Z,16.00
2022-12-24T23:50:22.366Z,18.50
2022-12-24T23:55:26.995Z,18.75
